createdAt,value
2018-11-21T00:01:21.330Z,41.75
2018-11-21T00:03:51.763Z,35.25
2018-11-21T00:06:22.017Z,38.50
2018-11-21T00:08:51.448Z,33.50
2018-11-21T00:11:23.202Z,35.75
2018-11-21T00:13:52.944Z,45.00
2018-11-21T00:16:23.204Z,33.50
2018-11-21T00:18:53.242Z,35.75
2018-11-21T00:21:22.884Z,37.00
2018-11-21T00:24:37.436Z,36.75
2018-11-21T00:27:06.603Z,40.50
2018-11-21T00:29:35.839Z,39.75
2018-11-21T00:32:24.532Z,38.50
2018-11-21T00:34:53.706Z,31.50
2018-11-21T00:37:23.980Z,33.75
2018-11-21T00:39:54.413Z,35.75
2018-11-21T00:42:27.090Z,32.75
2018-11-21T00:44:58.152Z,38.00
2018-11-21T00:47:27.000Z,38.50
2018-11-21T00:49:56.734Z,37.25
2018-11-21T00:52:29.517Z,37.25
2018-11-21T00:55:02.425Z,37.75
2018-11-21T00:57:32.486Z,37.50
2018-11-21T01:00:15.645Z,37.25
2018-11-21T01:02:45.573Z,37.00
2018-11-21T01:05:15.327Z,33.50
2018-11-21T01:07:47.249Z,41.75
2018-11-21T01:10:20.671Z,34.50
2018-11-21T01:12:54.721Z,34.00
2018-11-21T01:15:28.825Z,36.25
2018-11-21T01:18:01.704Z,30.50
2018-11-21T01:20:37.789Z,33.00
2018-11-21T01:23:08.622Z,38.00
2018-11-21T01:25:41.275Z,31.75
2018-11-21T01:28:10.643Z,40.25
2018-11-21T01:30:42.341Z,35.00
2018-11-21T01:33:14.366Z,32.00
2018-11-21T01:35:46.247Z,42.00
2018-11-21T01:38:16.665Z,32.00
2018-11-21T01:40:46.246Z,36.50
2018-11-21T01:43:16.300Z,44.50
2018-11-21T01:45:47.905Z,40.25
2018-11-21T01:48:18.311Z,39.25
2018-11-21T01:50:54.757Z,40.75
2018-11-21T01:53:24.826Z,28.50
2018-11-21T01:55:54.543Z,32.25
2018-11-21T01:58:31.179Z,36.25
2018-11-21T02:01:01.944Z,39.25
2018-11-21T02:03:39.265Z,36.50
2018-11-21T02:06:10.062Z,37.00
2018-11-21T02:08:40.082Z,43.50
2018-11-21T02:11:10.054Z,38.75
2018-11-21T02:13:41.395Z,47.50
2018-11-21T02:16:12.830Z,41.75
2018-11-21T02:18:42.081Z,43.50
2018-11-21T02:21:11.649Z,42.75
2018-11-21T02:23:40.961Z,42.00
2018-11-21T02:26:11.732Z,36.00
2018-11-21T02:28:41.836Z,38.25
2018-11-21T02:31:16.218Z,38.75
2018-11-21T02:33:46.200Z,34.00
2018-11-21T02:36:16.010Z,37.50
2018-11-21T02:38:45.498Z,41.00
2018-11-21T02:41:15.090Z,44.75
2018-11-21T02:43:44.191Z,41.50
2018-11-21T02:46:14.288Z,34.00
2018-11-21T02:48:46.062Z,35.00
2018-11-21T02:51:16.764Z,43.25
2018-11-21T02:53:56.293Z,41.50
2018-11-21T02:57:02.959Z,39.75
2018-11-21T02:59:32.448Z,42.50
2018-11-21T03:02:01.714Z,43.75
2018-11-21T03:04:31.324Z,38.75
2018-11-21T03:07:01.548Z,36.00
2018-11-21T03:09:31.149Z,37.50
2018-11-21T03:12:00.445Z,43.50
2018-11-21T03:14:30.268Z,34.00
2018-11-21T03:17:00.722Z,34.00
2018-11-21T03:19:30.709Z,39.50
2018-11-21T03:22:01.140Z,36.50
2018-11-21T03:24:30.653Z,41.50
2018-11-21T03:27:03.582Z,35.25
2018-11-21T03:29:38.438Z,32.75
2018-11-21T03:32:08.074Z,47.50
2018-11-21T03:34:44.506Z,47.00
2018-11-21T03:37:21.083Z,37.25
2018-11-21T03:39:54.150Z,39.00
2018-11-21T03:42:26.563Z,40.00
2018-11-21T03:45:20.684Z,35.00
2018-11-21T03:50:55.861Z,37.25
2018-11-21T03:53:59.231Z,39.00
2018-11-21T03:56:57.576Z,39.00
2018-11-21T04:02:16.728Z,36.50
2018-11-21T04:04:46.664Z,42.00
2018-11-21T04:07:36.839Z,41.00
2018-11-21T04:10:46.916Z,40.25
2018-11-21T04:13:17.726Z,39.25
2018-11-21T04:16:05.810Z,40.50
2018-11-21T04:18:35.603Z,44.75
2018-11-21T04:21:53.063Z,42.00
2018-11-21T04:37:08.742Z,47.50
2018-11-21T04:39:38.095Z,51.25
2018-11-21T04:42:07.305Z,48.25
2018-11-21T04:44:39.195Z,57.00
2018-11-21T04:47:14.044Z,48.00
2018-11-21T04:49:50.971Z,44.75
2018-11-21T04:56:01.064Z,42.00
2018-11-21T04:58:33.292Z,46.00
2018-11-21T05:01:10.112Z,38.00
2018-11-21T05:03:40.808Z,40.75
2018-11-21T05:06:10.080Z,41.00
2018-11-21T05:08:41.047Z,43.00
2018-11-21T05:11:11.130Z,42.50
2018-11-21T05:13:42.921Z,36.00
2018-11-21T05:16:13.161Z,43.00
2018-11-21T05:18:42.883Z,38.00
2018-11-21T05:21:13.344Z,47.25
2018-11-21T05:23:43.096Z,40.25
2018-11-21T05:26:13.045Z,48.50
2018-11-21T05:28:42.408Z,38.75
2018-11-21T05:31:12.058Z,41.75
2018-11-21T05:33:41.632Z,43.00
2018-11-21T05:36:11.190Z,43.75
2018-11-21T05:38:54.674Z,39.00
2018-11-21T05:41:24.072Z,50.75
2018-11-21T05:44:02.699Z,42.25
2018-11-21T05:46:41.849Z,44.00
2018-11-21T05:49:11.625Z,44.50
2018-11-21T05:51:41.525Z,47.00
2018-11-21T05:54:11.510Z,47.00
2018-11-21T05:56:44.411Z,38.75
2018-11-21T05:59:13.914Z,36.50
2018-11-21T06:01:45.077Z,42.75
2018-11-21T06:04:19.342Z,45.00
2018-11-21T06:06:49.355Z,40.00
2018-11-21T06:09:18.538Z,42.25
2018-11-21T06:11:54.882Z,46.50
2018-11-21T06:14:32.964Z,48.75
2018-11-21T06:17:02.192Z,57.25
2018-11-21T06:19:33.387Z,50.25
2018-11-21T06:22:02.673Z,56.50
2018-11-21T06:24:35.110Z,46.25
2018-11-21T06:27:06.193Z,46.00
2018-11-21T06:29:42.934Z,47.25
2018-11-21T06:32:20.065Z,45.25
2018-11-21T06:34:52.697Z,45.25
2018-11-21T06:37:29.922Z,45.50
2018-11-21T06:40:00.942Z,54.25
2018-11-21T06:42:39.852Z,45.75
2018-11-21T06:45:13.712Z,41.50
2018-11-21T06:47:48.156Z,51.25
2018-11-21T06:50:22.754Z,56.25
2018-11-21T06:52:52.555Z,47.00
2018-11-21T06:55:24.206Z,52.75
2018-11-21T06:57:55.727Z,54.50
2018-11-21T07:00:27.857Z,54.00
2018-11-21T07:03:09.682Z,56.00
2018-11-21T07:05:40.655Z,51.25
2018-11-21T07:08:11.718Z,48.25
2018-11-21T07:10:41.092Z,48.00
2018-11-21T07:13:11.755Z,54.25
2018-11-21T07:15:44.448Z,59.75
2018-11-21T07:18:27.724Z,47.25
2018-11-21T07:20:59.565Z,48.75
2018-11-21T07:23:41.193Z,48.00
2018-11-21T07:26:10.420Z,53.00
2018-11-21T07:28:43.288Z,57.25
2018-11-21T07:31:13.678Z,48.50
2018-11-21T07:33:46.506Z,47.50
2018-11-21T07:36:14.674Z,59.25
2018-11-21T07:41:33.724Z,50.75
2018-11-21T07:44:23.353Z,52.75
2018-11-21T07:47:05.412Z,48.00
2018-11-21T07:49:54.588Z,55.00
2018-11-21T07:52:44.378Z,52.00
2018-11-21T07:55:33.134Z,57.50
2018-11-21T07:58:24.189Z,53.25
2018-11-21T08:01:21.575Z,51.00
2018-11-21T08:04:03.234Z,44.50
2018-11-21T08:06:36.761Z,55.75
2018-11-21T08:09:40.312Z,48.75
2018-11-21T08:12:42.746Z,69.00
2018-11-21T08:15:50.579Z,50.75
2018-11-21T08:25:12.954Z,53.25
2018-11-21T08:28:16.569Z,50.75
2018-11-21T08:31:30.441Z,53.00
2018-11-21T08:34:39.806Z,52.50
2018-11-21T08:37:14.394Z,56.00
2018-11-21T08:39:46.024Z,61.50
2018-11-21T08:42:20.961Z,53.50
2018-11-21T08:45:14.299Z,52.50
2018-11-21T08:48:24.924Z,46.75
2018-11-21T08:50:52.130Z,51.50
2018-11-21T08:53:22.137Z,47.25
2018-11-21T08:55:52.825Z,54.25
2018-11-21T08:58:30.106Z,52.50
2018-11-21T09:13:19.509Z,55.75
2018-11-21T09:16:08.060Z,53.75
2018-11-21T09:18:49.581Z,59.25
2018-11-21T09:21:38.237Z,53.00
2018-11-21T09:24:08.522Z,58.50
2018-11-21T09:26:56.868Z,55.00
2018-11-21T09:30:07.702Z,71.75
2018-11-21T09:32:56.113Z,60.00
2018-11-21T09:35:40.453Z,55.75
2018-11-21T09:38:29.638Z,50.50
2018-11-21T09:50:33.264Z,43.25
2018-11-21T09:53:14.060Z,48.25
2018-11-21T09:59:50.529Z,49.50
2018-11-21T10:06:40.067Z,44.00
2018-11-21T10:09:47.816Z,49.50
2018-11-21T10:12:37.293Z,44.75
2018-11-21T10:15:18.246Z,47.50
2018-11-21T10:18:31.603Z,53.50
2018-11-21T10:24:23.848Z,54.25
2018-11-21T10:27:31.341Z,49.25
2018-11-21T10:33:28.854Z,42.75
2018-11-21T10:36:03.755Z,51.50
2018-11-21T10:41:56.016Z,51.50
2018-11-21T10:48:16.217Z,44.50
2018-11-21T10:53:47.622Z,59.50
2018-11-21T10:56:23.695Z,48.00
2018-11-21T10:58:55.709Z,49.50
2018-11-21T11:02:02.905Z,51.50
2018-11-21T11:05:30.522Z,45.75
2018-11-21T11:09:00.298Z,53.50
2018-11-21T11:15:15.528Z,41.00
2018-11-21T11:21:41.117Z,43.75
2018-11-21T11:28:06.162Z,45.00
2018-11-21T11:31:38.091Z,52.75
2018-11-21T11:35:12.589Z,45.00
2018-11-21T11:38:47.286Z,39.75
2018-11-21T11:51:29.046Z,45.00
2018-11-21T11:54:25.622Z,41.00
2018-11-21T11:57:20.574Z,39.50
2018-11-21T12:00:18.902Z,39.50
2018-11-21T12:06:31.149Z,40.50
2018-11-21T12:09:29.762Z,42.00
2018-11-21T12:12:21.495Z,39.50
2018-11-21T12:18:38.203Z,45.50
2018-11-21T12:21:45.733Z,39.25
2018-11-21T12:24:55.354Z,45.25
2018-11-21T12:27:49.289Z,40.75
2018-11-21T12:30:59.407Z,46.75
2018-11-21T12:34:10.315Z,45.00
2018-11-21T12:37:02.549Z,36.25
2018-11-21T12:39:53.787Z,40.25
2018-11-21T12:42:41.296Z,44.00
2018-11-21T12:45:59.084Z,38.00
2018-11-21T12:49:01.553Z,42.75
2018-11-21T12:52:31.625Z,38.50
2018-11-21T12:55:52.976Z,44.75
2018-11-21T12:58:45.449Z,39.00
2018-11-21T13:01:53.688Z,40.25
2018-11-21T13:04:54.477Z,40.75
2018-11-21T13:07:49.712Z,41.75
2018-11-21T13:10:59.686Z,36.00
2018-11-21T13:13:53.087Z,43.25
2018-11-21T13:17:01.496Z,39.50
2018-11-21T13:20:09.865Z,39.00
2018-11-21T13:23:07.890Z,48.00
2018-11-21T13:25:58.200Z,37.75
2018-11-21T13:28:45.888Z,42.00
2018-11-21T13:31:53.676Z,40.25
2018-11-21T13:35:01.019Z,39.50
2018-11-21T13:38:08.351Z,44.00
2018-11-21T13:44:27.100Z,40.75
2018-11-21T13:47:17.155Z,41.75
2018-11-21T13:50:21.220Z,36.50
2018-11-21T13:53:28.832Z,41.75
2018-11-21T14:03:01.310Z,40.75
2018-11-21T14:05:34.791Z,40.00
2018-11-21T14:08:14.528Z,47.50
2018-11-21T14:10:52.289Z,40.00
2018-11-21T14:13:26.373Z,41.75
2018-11-21T14:16:33.907Z,42.75
2018-11-21T14:19:10.871Z,37.50
2018-11-21T14:21:38.655Z,36.75
2018-11-21T14:24:13.976Z,37.75
2018-11-21T14:26:50.569Z,42.50
2018-11-21T14:29:31.751Z,42.25
2018-11-21T14:32:24.208Z,50.00
2018-11-21T14:35:06.774Z,41.50
2018-11-21T14:41:14.767Z,41.25
2018-11-21T14:43:58.586Z,43.00
2018-11-21T14:47:08.415Z,35.25
2018-11-21T14:49:58.463Z,43.25
2018-11-21T14:52:48.006Z,52.00
2018-11-21T14:55:18.295Z,40.25
2018-11-21T14:57:50.598Z,48.50
2018-11-21T15:03:47.948Z,39.25
2018-11-21T15:06:24.411Z,49.75
2018-11-21T15:08:57.353Z,37.75
2018-11-21T15:11:55.819Z,40.25
2018-11-21T15:18:07.372Z,44.50
2018-11-21T15:21:16.669Z,47.00
2018-11-21T15:24:19.670Z,43.75
2018-11-21T15:27:21.310Z,42.50
2018-11-21T15:30:00.081Z,45.00
